Aviation Digital Data Service (ADDS)

Output produced by METARs form (0734 UTC 19 February 2019)
found at http://www.aviationweather.gov/metar/data/
 
Forecast for: VTUD (UDON THANI(CIV/A, TH)
Text: TAF VTUD 190500Z 1906/2006 VRB02KT 8000 NSC
Forecast period: 0600 UTC 19 February 2019 to 0600 UTC 20 February 2019
Forecast type: FROM: standard forecast or significant change
Winds: variable direction winds at 2 MPH (2 knots; 1.0 m/s)
Visibility: 5 miles (8 km)
Ceiling: unknown
Clouds: missing
Weather: no significant weather forecast for this period